sensor_id;sensor_type;location;lat;lon;timestamp;P1;durP1;ratioP1;P2;durP2;ratioP2
5807;SDS011;2930;42.678;23.312;2022-10-31T00:01:34;1.23;;;1.23;;
5807;SDS011;2930;42.678;23.312;2022-10-31T00:04:02;2.15;;;1.35;;
5807;SDS011;2930;42.678;23.312;2022-10-31T00:06:29;1.80;;;1.70;;
5807;SDS011;2930;42.678;23.312;2022-10-31T00:08:56;1.80;;;1.63;;
5807;SDS011;2930;42.678;23.312;2022-10-31T00:11:24;1.50;;;1.40;;
5807;SDS011;2930;42.678;23.312;2022-10-31T00:13:49;1.15;;;1.15;;
5807;SDS011;2930;42.678;23.312;2022-10-31T00:16:16;3.10;;;1.23;;
5807;SDS011;2930;42.678;23.312;2022-10-31T00:18:43;2.00;;;1.38;;
5807;SDS011;2930;42.678;23.312;2022-10-31T00:21:09;1.17;;;1.17;;
5807;SDS011;2930;42.678;23.312;2022-10-31T00:23:35;1.70;;;1.60;;
5807;SDS011;2930;42.678;23.312;2022-10-31T00:26:01;1.55;;;1.35;;
5807;SDS011;2930;42.678;23.312;2022-10-31T00:28:28;3.85;;;1.70;;
5807;SDS011;2930;42.678;23.312;2022-10-31T00:30:57;1.70;;;1.60;;
5807;SDS011;2930;42.678;23.312;2022-10-31T00:33:26;1.70;;;1.60;;
5807;SDS011;2930;42.678;23.312;2022-10-31T00:35:52;1.55;;;1.52;;
5807;SDS011;2930;42.678;23.312;2022-10-31T00:38:17;1.98;;;1.15;;
5807;SDS011;2930;42.678;23.312;2022-10-31T00:40:43;1.60;;;1.50;;
5807;SDS011;2930;42.678;23.312;2022-10-31T00:43:09;2.20;;;1.20;;
5807;SDS011;2930;42.678;23.312;2022-10-31T00:45:34;1.83;;;1.50;;
5807;SDS011;2930;42.678;23.312;2022-10-31T00:48:00;2.03;;;1.67;;
5807;SDS011;2930;42.678;23.312;2022-10-31T00:50:26;2.15;;;1.23;;
5807;SDS011;2930;42.678;23.312;2022-10-31T00:52:51;3.35;;;1.67;;
5807;SDS011;2930;42.678;23.312;2022-10-31T00:55:17;2.10;;;1.10;;
5807;SDS011;2930;42.678;23.312;2022-10-31T00:57:45;1.60;;;1.58;;
5807;SDS011;2930;42.678;23.312;2022-10-31T01:00:11;1.40;;;1.30;;
5807;SDS011;2930;42.678;23.312;2022-10-31T01:02:37;1.95;;;1.25;;
5807;SDS011;2930;42.678;23.312;2022-10-31T01:05:03;1.58;;;1.48;;
5807;SDS011;2930;42.678;23.312;2022-10-31T01:07:29;1.65;;;1.55;;
5807;SDS011;2930;42.678;23.312;2022-10-31T01:09:54;1.50;;;1.33;;
5807;SDS011;2930;42.678;23.312;2022-10-31T01:12:20;4.53;;;1.45;;
5807;SDS011;2930;42.678;23.312;2022-10-31T01:14:46;3.50;;;1.48;;
5807;SDS011;2930;42.678;23.312;2022-10-31T01:17:12;1.75;;;1.48;;
5807;SDS011;2930;42.678;23.312;2022-10-31T01:19:38;1.02;;;1.02;;
5807;SDS011;2930;42.678;23.312;2022-10-31T01:22:04;1.13;;;1.08;;
5807;SDS011;2930;42.678;23.312;2022-10-31T01:24:30;1.98;;;1.35;;
5807;SDS011;2930;42.678;23.312;2022-10-31T01:26:55;1.27;;;1.27;;
5807;SDS011;2930;42.678;23.312;2022-10-31T01:29:21;2.40;;;1.30;;
5807;SDS011;2930;42.678;23.312;2022-10-31T01:31:47;2.67;;;1.10;;
5807;SDS011;2930;42.678;23.312;2022-10-31T01:34:13;1.23;;;1.23;;
5807;SDS011;2930;42.678;23.312;2022-10-31T01:36:41;1.77;;;1.67;;
5807;SDS011;2930;42.678;23.312;2022-10-31T01:39:11;2.35;;;1.67;;
5807;SDS011;2930;42.678;23.312;2022-10-31T01:41:43;1.50;;;1.50;;
5807;SDS011;2930;42.678;23.312;2022-10-31T01:46:40;1.73;;;1.63;;
5807;SDS011;2930;42.678;23.312;2022-10-31T01:49:13;2.38;;;2.28;;
5807;SDS011;2930;42.678;23.312;2022-10-31T01:51:45;1.92;;;1.83;;
5807;SDS011;2930;42.678;23.312;2022-10-31T01:54:24;3.10;;;1.40;;
5807;SDS011;2930;42.678;23.312;2022-10-31T01:56:55;1.90;;;1.75;;
5807;SDS011;2930;42.678;23.312;2022-10-31T01:59:22;2.35;;;1.95;;
5807;SDS011;2930;42.678;23.312;2022-10-31T02:01:52;1.83;;;1.70;;
5807;SDS011;2930;42.678;23.312;2022-10-31T02:04:18;2.50;;;2.00;;
5807;SDS011;2930;42.678;23.312;2022-10-31T02:07:20;2.17;;;2.05;;
5807;SDS011;2930;42.678;23.312;2022-10-31T02:09:39;3.33;;;1.80;;
5807;SDS011;2930;42.678;23.312;2022-10-31T02:12:06;2.33;;;2.05;;
5807;SDS011;2930;42.678;23.312;2022-10-31T02:14:34;1.88;;;1.85;;
5807;SDS011;2930;42.678;23.312;2022-10-31T02:17:02;2.40;;;2.08;;
5807;SDS011;2930;42.678;23.312;2022-10-31T02:19:41;3.38;;;2.05;;
5807;SDS011;2930;42.678;23.312;2022-10-31T02:28:34;2.03;;;1.67;;
5807;SDS011;2930;42.678;23.312;2022-10-31T02:31:22;3.33;;;2.55;;
5807;SDS011;2930;42.678;23.312;2022-10-31T02:34:02;3.70;;;2.45;;
5807;SDS011;2930;42.678;23.312;2022-10-31T02:36:43;3.53;;;2.17;;
5807;SDS011;2930;42.678;23.312;2022-10-31T02:42:42;3.15;;;2.78;;
5807;SDS011;2930;42.678;23.312;2022-10-31T02:47:55;2.58;;;2.47;;
5807;SDS011;2930;42.678;23.312;2022-10-31T02:50:34;6.30;;;3.25;;
5807;SDS011;2930;42.678;23.312;2022-10-31T02:53:04;3.35;;;3.15;;
5807;SDS011;2930;42.678;23.312;2022-10-31T02:58:04;7.78;;;3.70;;
5807;SDS011;2930;42.678;23.312;2022-10-31T03:00:37;3.70;;;3.50;;
5807;SDS011;2930;42.678;23.312;2022-10-31T03:03:22;3.15;;;2.95;;
5807;SDS011;2930;42.678;23.312;2022-10-31T03:06:07;4.55;;;3.53;;
5807;SDS011;2930;42.678;23.312;2022-10-31T03:11:14;3.83;;;3.53;;
5807;SDS011;2930;42.678;23.312;2022-10-31T03:19:08;5.70;;;3.40;;
5807;SDS011;2930;42.678;23.312;2022-10-31T03:21:46;6.60;;;3.22;;
5807;SDS011;2930;42.678;23.312;2022-10-31T03:24:29;3.70;;;3.47;;
5807;SDS011;2930;42.678;23.312;2022-10-31T03:26:57;4.05;;;3.75;;
5807;SDS011;2930;42.678;23.312;2022-10-31T03:29:26;4.10;;;3.72;;
5807;SDS011;2930;42.678;23.312;2022-10-31T03:31:59;3.60;;;2.92;;
5807;SDS011;2930;42.678;23.312;2022-10-31T03:34:28;4.82;;;3.80;;
5807;SDS011;2930;42.678;23.312;2022-10-31T03:36:57;4.30;;;3.47;;
5807;SDS011;2930;42.678;23.312;2022-10-31T03:39:26;4.72;;;3.70;;
5807;SDS011;2930;42.678;23.312;2022-10-31T03:42:15;6.40;;;3.80;;
5807;SDS011;2930;42.678;23.312;2022-10-31T03:44:42;6.78;;;3.63;;
5807;SDS011;2930;42.678;23.312;2022-10-31T03:47:12;4.60;;;3.88;;
5807;SDS011;2930;42.678;23.312;2022-10-31T03:49:38;4.05;;;3.60;;
5807;SDS011;2930;42.678;23.312;2022-10-31T03:54:51;4.07;;;3.78;;
5807;SDS011;2930;42.678;23.312;2022-10-31T04:00:13;5.20;;;4.13;;
5807;SDS011;2930;42.678;23.312;2022-10-31T04:02:42;6.32;;;4.05;;
5807;SDS011;2930;42.678;23.312;2022-10-31T04:05:23;4.93;;;3.97;;
5807;SDS011;2930;42.678;23.312;2022-10-31T04:07:50;4.63;;;4.13;;
5807;SDS011;2930;42.678;23.312;2022-10-31T04:10:21;6.97;;;3.95;;
5807;SDS011;2930;42.678;23.312;2022-10-31T04:12:50;6.28;;;4.03;;
5807;SDS011;2930;42.678;23.312;2022-10-31T04:15:20;4.10;;;3.78;;
5807;SDS011;2930;42.678;23.312;2022-10-31T04:17:48;8.38;;;3.75;;
5807;SDS011;2930;42.678;23.312;2022-10-31T04:20:17;5.38;;;4.57;;
5807;SDS011;2930;42.678;23.312;2022-10-31T04:22:43;4.45;;;4.10;;
5807;SDS011;2930;42.678;23.312;2022-10-31T04:25:09;4.22;;;3.83;;
5807;SDS011;2930;42.678;23.312;2022-10-31T04:27:34;4.45;;;4.05;;
5807;SDS011;2930;42.678;23.312;2022-10-31T04:30:00;4.75;;;4.28;;
5807;SDS011;2930;42.678;23.312;2022-10-31T04:32:26;6.15;;;4.03;;
5807;SDS011;2930;42.678;23.312;2022-10-31T04:34:51;4.22;;;3.92;;
5807;SDS011;2930;42.678;23.312;2022-10-31T04:37:17;4.32;;;3.80;;
5807;SDS011;2930;42.678;23.312;2022-10-31T04:39:43;4.18;;;3.75;;
5807;SDS011;2930;42.678;23.312;2022-10-31T04:42:08;3.47;;;3.20;;
5807;SDS011;2930;42.678;23.312;2022-10-31T04:44:34;4.68;;;3.88;;
5807;SDS011;2930;42.678;23.312;2022-10-31T04:46:59;4.85;;;4.22;;
5807;SDS011;2930;42.678;23.312;2022-10-31T04:49:25;4.97;;;3.50;;
5807;SDS011;2930;42.678;23.312;2022-10-31T04:51:51;4.72;;;3.28;;
5807;SDS011;2930;42.678;23.312;2022-10-31T04:54:16;3.88;;;3.70;;
5807;SDS011;2930;42.678;23.312;2022-10-31T04:56:42;4.32;;;3.92;;
5807;SDS011;2930;42.678;23.312;2022-10-31T04:59:08;5.72;;;3.75;;
5807;SDS011;2930;42.678;23.312;2022-10-31T05:01:33;4.60;;;4.20;;
5807;SDS011;2930;42.678;23.312;2022-10-31T05:03:59;3.78;;;3.47;;
5807;SDS011;2930;42.678;23.312;2022-10-31T05:06:24;3.55;;;3.35;;
5807;SDS011;2930;42.678;23.312;2022-10-31T05:08:50;5.22;;;3.63;;
5807;SDS011;2930;42.678;23.312;2022-10-31T05:11:16;6.60;;;3.85;;
5807;SDS011;2930;42.678;23.312;2022-10-31T05:13:41;4.68;;;4.20;;
5807;SDS011;2930;42.678;23.312;2022-10-31T05:16:07;6.78;;;3.90;;
5807;SDS011;2930;42.678;23.312;2022-10-31T05:18:32;4.55;;;4.22;;
5807;SDS011;2930;42.678;23.312;2022-10-31T05:20:58;7.90;;;4.63;;
5807;SDS011;2930;42.678;23.312;2022-10-31T05:23:24;4.13;;;3.83;;
5807;SDS011;2930;42.678;23.312;2022-10-31T05:25:49;4.90;;;4.50;;
5807;SDS011;2930;42.678;23.312;2022-10-31T05:28:15;6.63;;;4.85;;
5807;SDS011;2930;42.678;23.312;2022-10-31T05:30:41;5.63;;;4.25;;
5807;SDS011;2930;42.678;23.312;2022-10-31T05:33:06;8.73;;;4.65;;
5807;SDS011;2930;42.678;23.312;2022-10-31T05:35:32;4.22;;;3.95;;
5807;SDS011;2930;42.678;23.312;2022-10-31T05:37:58;6.18;;;4.57;;
5807;SDS011;2930;42.678;23.312;2022-10-31T05:40:25;4.72;;;4.32;;
5807;SDS011;2930;42.678;23.312;2022-10-31T05:42:52;4.30;;;3.90;;
5807;SDS011;2930;42.678;23.312;2022-10-31T05:45:19;3.53;;;3.25;;
5807;SDS011;2930;42.678;23.312;2022-10-31T05:47:59;4.70;;;4.18;;
5807;SDS011;2930;42.678;23.312;2022-10-31T05:50:26;5.10;;;4.60;;
5807;SDS011;2930;42.678;23.312;2022-10-31T05:52:55;5.18;;;4.43;;
5807;SDS011;2930;42.678;23.312;2022-10-31T05:55:22;9.18;;;4.88;;
5807;SDS011;2930;42.678;23.312;2022-10-31T05:57:48;4.55;;;4.22;;
5807;SDS011;2930;42.678;23.312;2022-10-31T06:00:13;6.28;;;4.85;;
5807;SDS011;2930;42.678;23.312;2022-10-31T06:02:39;7.65;;;5.22;;
5807;SDS011;2930;42.678;23.312;2022-10-31T06:05:05;4.85;;;4.40;;
5807;SDS011;2930;42.678;23.312;2022-10-31T06:07:33;5.70;;;5.25;;
5807;SDS011;2930;42.678;23.312;2022-10-31T06:10:00;8.40;;;5.57;;
5807;SDS011;2930;42.678;23.312;2022-10-31T06:12:27;6.68;;;5.13;;
5807;SDS011;2930;42.678;23.312;2022-10-31T06:14:52;5.68;;;4.63;;
5807;SDS011;2930;42.678;23.312;2022-10-31T06:17:18;5.18;;;4.78;;
5807;SDS011;2930;42.678;23.312;2022-10-31T06:19:44;5.13;;;4.63;;
5807;SDS011;2930;42.678;23.312;2022-10-31T06:22:09;5.35;;;4.82;;
5807;SDS011;2930;42.678;23.312;2022-10-31T06:24:36;6.93;;;5.03;;
5807;SDS011;2930;42.678;23.312;2022-10-31T06:27:03;8.15;;;5.18;;
5807;SDS011;2930;42.678;23.312;2022-10-31T06:29:29;11.80;;;5.43;;
5807;SDS011;2930;42.678;23.312;2022-10-31T06:31:55;7.68;;;5.82;;
5807;SDS011;2930;42.678;23.312;2022-10-31T06:34:20;8.23;;;6.20;;
5807;SDS011;2930;42.678;23.312;2022-10-31T06:36:46;8.90;;;6.13;;
5807;SDS011;2930;42.678;23.312;2022-10-31T06:39:12;8.18;;;6.40;;
5807;SDS011;2930;42.678;23.312;2022-10-31T06:41:38;9.45;;;7.00;;
5807;SDS011;2930;42.678;23.312;2022-10-31T06:44:05;14.18;;;6.95;;
5807;SDS011;2930;42.678;23.312;2022-10-31T06:46:31;12.38;;;6.55;;
5807;SDS011;2930;42.678;23.312;2022-10-31T06:48:57;9.15;;;5.63;;
5807;SDS011;2930;42.678;23.312;2022-10-31T06:51:22;10.63;;;6.68;;
5807;SDS011;2930;42.678;23.312;2022-10-31T06:53:48;7.35;;;6.13;;
5807;SDS011;2930;42.678;23.312;2022-10-31T06:56:14;10.02;;;6.70;;
5807;SDS011;2930;42.678;23.312;2022-10-31T06:58:39;9.45;;;6.35;;
5807;SDS011;2930;42.678;23.312;2022-10-31T07:01:05;11.18;;;6.47;;
5807;SDS011;2930;42.678;23.312;2022-10-31T07:03:31;6.88;;;5.95;;
5807;SDS011;2930;42.678;23.312;2022-10-31T07:05:57;10.07;;;6.80;;
5807;SDS011;2930;42.678;23.312;2022-10-31T07:08:24;12.25;;;5.80;;
5807;SDS011;2930;42.678;23.312;2022-10-31T07:10:51;9.43;;;6.30;;
5807;SDS011;2930;42.678;23.312;2022-10-31T07:13:18;7.90;;;6.50;;
5807;SDS011;2930;42.678;23.312;2022-10-31T07:15:49;9.15;;;6.55;;
5807;SDS011;2930;42.678;23.312;2022-10-31T07:18:15;8.20;;;6.47;;
5807;SDS011;2930;42.678;23.312;2022-10-31T07:20:41;10.23;;;7.13;;
5807;SDS011;2930;42.678;23.312;2022-10-31T07:23:07;8.90;;;7.07;;
5807;SDS011;2930;42.678;23.312;2022-10-31T07:25:37;11.25;;;8.05;;
5807;SDS011;2930;42.678;23.312;2022-10-31T07:28:03;8.35;;;7.18;;
5807;SDS011;2930;42.678;23.312;2022-10-31T07:30:29;8.02;;;7.10;;
5807;SDS011;2930;42.678;23.312;2022-10-31T07:32:55;10.90;;;6.72;;
5807;SDS011;2930;42.678;23.312;2022-10-31T07:35:22;8.65;;;7.57;;
5807;SDS011;2930;42.678;23.312;2022-10-31T07:37:49;12.85;;;7.90;;
5807;SDS011;2930;42.678;23.312;2022-10-31T07:40:15;13.48;;;7.47;;
5807;SDS011;2930;42.678;23.312;2022-10-31T07:42:45;9.35;;;7.22;;
5807;SDS011;2930;42.678;23.312;2022-10-31T07:45:16;8.27;;;7.45;;
5807;SDS011;2930;42.678;23.312;2022-10-31T07:47:48;10.48;;;8.27;;
5807;SDS011;2930;42.678;23.312;2022-10-31T07:50:20;10.70;;;7.88;;
5807;SDS011;2930;42.678;23.312;2022-10-31T07:52:47;8.38;;;7.55;;
5807;SDS011;2930;42.678;23.312;2022-10-31T07:55:13;8.60;;;7.22;;
5807;SDS011;2930;42.678;23.312;2022-10-31T07:57:39;8.60;;;7.72;;
5807;SDS011;2930;42.678;23.312;2022-10-31T08:00:06;8.77;;;7.90;;
5807;SDS011;2930;42.678;23.312;2022-10-31T08:02:34;8.23;;;7.53;;
5807;SDS011;2930;42.678;23.312;2022-10-31T08:04:59;8.52;;;7.25;;
5807;SDS011;2930;42.678;23.312;2022-10-31T08:07:27;10.82;;;7.40;;
5807;SDS011;2930;42.678;23.312;2022-10-31T08:09:53;7.63;;;6.97;;
5807;SDS011;2930;42.678;23.312;2022-10-31T08:12:19;9.75;;;8.00;;
5807;SDS011;2930;42.678;23.312;2022-10-31T08:14:45;12.23;;;8.55;;
5807;SDS011;2930;42.678;23.312;2022-10-31T08:17:11;10.27;;;7.45;;
5807;SDS011;2930;42.678;23.312;2022-10-31T08:19:36;11.77;;;8.05;;
5807;SDS011;2930;42.678;23.312;2022-10-31T08:22:02;8.35;;;7.63;;
5807;SDS011;2930;42.678;23.312;2022-10-31T08:24:28;8.48;;;7.68;;
5807;SDS011;2930;42.678;23.312;2022-10-31T08:26:53;12.23;;;8.25;;
5807;SDS011;2930;42.678;23.312;2022-10-31T08:29:19;10.95;;;8.65;;
5807;SDS011;2930;42.678;23.312;2022-10-31T08:31:45;9.85;;;8.50;;
5807;SDS011;2930;42.678;23.312;2022-10-31T08:36:39;8.85;;;8.00;;
5807;SDS011;2930;42.678;23.312;2022-10-31T08:39:05;9.07;;;8.00;;
5807;SDS011;2930;42.678;23.312;2022-10-31T08:41:30;8.70;;;7.57;;
5807;SDS011;2930;42.678;23.312;2022-10-31T08:43:56;7.88;;;7.03;;
5807;SDS011;2930;42.678;23.312;2022-10-31T08:46:22;9.95;;;7.82;;
5807;SDS011;2930;42.678;23.312;2022-10-31T08:48:48;9.95;;;7.85;;
5807;SDS011;2930;42.678;23.312;2022-10-31T08:51:13;8.02;;;7.30;;
5807;SDS011;2930;42.678;23.312;2022-10-31T08:53:39;10.25;;;7.13;;
5807;SDS011;2930;42.678;23.312;2022-10-31T08:56:05;8.63;;;7.70;;
5807;SDS011;2930;42.678;23.312;2022-10-31T08:58:31;8.02;;;7.07;;
5807;SDS011;2930;42.678;23.312;2022-10-31T09:00:58;8.23;;;7.18;;
5807;SDS011;2930;42.678;23.312;2022-10-31T09:03:25;8.18;;;7.45;;
5807;SDS011;2930;42.678;23.312;2022-10-31T09:05:57;8.32;;;7.18;;
5807;SDS011;2930;42.678;23.312;2022-10-31T09:08:23;7.50;;;6.80;;
5807;SDS011;2930;42.678;23.312;2022-10-31T09:10:49;7.28;;;6.57;;
5807;SDS011;2930;42.678;23.312;2022-10-31T09:13:19;8.30;;;6.68;;
5807;SDS011;2930;42.678;23.312;2022-10-31T09:15:46;6.93;;;6.40;;
5807;SDS011;2930;42.678;23.312;2022-10-31T09:18:14;7.97;;;7.10;;
5807;SDS011;2930;42.678;23.312;2022-10-31T09:20:42;8.55;;;6.70;;
5807;SDS011;2930;42.678;23.312;2022-10-31T09:23:10;6.88;;;6.10;;
5807;SDS011;2930;42.678;23.312;2022-10-31T09:25:36;7.55;;;5.75;;
5807;SDS011;2930;42.678;23.312;2022-10-31T09:28:03;6.22;;;5.82;;
5807;SDS011;2930;42.678;23.312;2022-10-31T09:30:32;8.13;;;5.18;;
5807;SDS011;2930;42.678;23.312;2022-10-31T09:33:00;6.07;;;5.57;;
5807;SDS011;2930;42.678;23.312;2022-10-31T09:35:27;5.68;;;5.20;;
5807;SDS011;2930;42.678;23.312;2022-10-31T09:38:03;9.95;;;5.32;;
5807;SDS011;2930;42.678;23.312;2022-10-31T09:51:45;6.15;;;4.78;;
5807;SDS011;2930;42.678;23.312;2022-10-31T09:56:50;5.15;;;4.60;;
5807;SDS011;2930;42.678;23.312;2022-10-31T09:59:19;4.88;;;4.22;;
5807;SDS011;2930;42.678;23.312;2022-10-31T10:02:05;5.18;;;4.35;;
5807;SDS011;2930;42.678;23.312;2022-10-31T10:07:21;3.95;;;3.78;;
5807;SDS011;2930;42.678;23.312;2022-10-31T10:09:58;8.13;;;3.35;;
5807;SDS011;2930;42.678;23.312;2022-10-31T10:32:11;3.33;;;2.25;;
5807;SDS011;2930;42.678;23.312;2022-10-31T10:34:47;2.40;;;2.30;;
5807;SDS011;2930;42.678;23.312;2022-10-31T10:37:32;2.42;;;2.17;;
5807;SDS011;2930;42.678;23.312;2022-10-31T10:40:13;2.03;;;2.00;;
5807;SDS011;2930;42.678;23.312;2022-10-31T10:42:52;2.83;;;2.10;;
5807;SDS011;2930;42.678;23.312;2022-10-31T10:45:39;2.63;;;2.13;;
5807;SDS011;2930;42.678;23.312;2022-10-31T10:48:36;2.50;;;2.03;;
5807;SDS011;2930;42.678;23.312;2022-10-31T10:51:20;2.40;;;2.30;;
5807;SDS011;2930;42.678;23.312;2022-10-31T10:56:34;1.77;;;1.77;;
5807;SDS011;2930;42.678;23.312;2022-10-31T10:59:07;2.45;;;2.00;;
5807;SDS011;2930;42.678;23.312;2022-10-31T11:01:38;2.53;;;1.70;;
5807;SDS011;2930;42.678;23.312;2022-10-31T11:04:18;1.88;;;1.55;;
5807;SDS011;2930;42.678;23.312;2022-10-31T11:06:56;3.45;;;1.60;;
5807;SDS011;2930;42.678;23.312;2022-10-31T11:09:29;2.80;;;2.03;;
5807;SDS011;2930;42.678;23.312;2022-10-31T11:11:57;2.97;;;2.15;;
5807;SDS011;2930;42.678;23.312;2022-10-31T11:14:25;2.00;;;1.90;;
5807;SDS011;2930;42.678;23.312;2022-10-31T11:17:06;2.33;;;2.00;;
5807;SDS011;2930;42.678;23.312;2022-10-31T11:19:35;4.03;;;2.08;;
5807;SDS011;2930;42.678;23.312;2022-10-31T11:22:05;2.95;;;1.75;;
5807;SDS011;2930;42.678;23.312;2022-10-31T11:24:35;1.70;;;1.58;;
5807;SDS011;2930;42.678;23.312;2022-10-31T11:27:14;2.05;;;1.90;;
5807;SDS011;2930;42.678;23.312;2022-10-31T11:29:46;2.22;;;2.08;;
5807;SDS011;2930;42.678;23.312;2022-10-31T11:32:20;2.67;;;1.90;;
5807;SDS011;2930;42.678;23.312;2022-10-31T11:34:56;1.92;;;1.52;;
5807;SDS011;2930;42.678;23.312;2022-10-31T11:37:26;3.50;;;1.88;;
5807;SDS011;2930;42.678;23.312;2022-10-31T11:40:02;1.60;;;1.50;;
5807;SDS011;2930;42.678;23.312;2022-10-31T11:42:48;5.95;;;2.17;;
5807;SDS011;2930;42.678;23.312;2022-10-31T11:47:49;3.88;;;2.00;;
5807;SDS011;2930;42.678;23.312;2022-10-31T11:50:21;1.75;;;1.55;;
5807;SDS011;2930;42.678;23.312;2022-10-31T11:52:50;6.28;;;2.00;;
5807;SDS011;2930;42.678;23.312;2022-10-31T11:55:29;1.50;;;1.40;;
5807;SDS011;2930;42.678;23.312;2022-10-31T11:58:02;3.78;;;1.67;;
5807;SDS011;2930;42.678;23.312;2022-10-31T12:00:38;2.45;;;1.88;;
5807;SDS011;2930;42.678;23.312;2022-10-31T12:03:14;3.17;;;1.65;;
5807;SDS011;2930;42.678;23.312;2022-10-31T12:05:49;1.35;;;1.35;;
5807;SDS011;2930;42.678;23.312;2022-10-31T12:08:23;3.05;;;1.67;;
5807;SDS011;2930;42.678;23.312;2022-10-31T12:19:42;3.35;;;1.95;;
5807;SDS011;2930;42.678;23.312;2022-10-31T12:22:44;2.92;;;2.00;;
5807;SDS011;2930;42.678;23.312;2022-10-31T12:25:25;1.40;;;1.30;;
5807;SDS011;2930;42.678;23.312;2022-10-31T12:53:02;1.95;;;1.70;;
5807;SDS011;2930;42.678;23.312;2022-10-31T12:58:21;3.25;;;1.80;;
5807;SDS011;2930;42.678;23.312;2022-10-31T13:00:53;1.50;;;1.50;;
5807;SDS011;2930;42.678;23.312;2022-10-31T13:03:33;1.58;;;1.52;;
5807;SDS011;2930;42.678;23.312;2022-10-31T13:06:09;4.95;;;2.03;;
5807;SDS011;2930;42.678;23.312;2022-10-31T13:08:53;2.05;;;1.95;;
5807;SDS011;2930;42.678;23.312;2022-10-31T13:11:23;4.57;;;2.13;;
5807;SDS011;2930;42.678;23.312;2022-10-31T13:16:30;2.50;;;2.30;;
5807;SDS011;2930;42.678;23.312;2022-10-31T13:19:01;3.17;;;1.70;;
5807;SDS011;2930;42.678;23.312;2022-10-31T13:21:36;3.00;;;2.05;;
5807;SDS011;2930;42.678;23.312;2022-10-31T13:24:33;2.30;;;2.13;;
5807;SDS011;2930;42.678;23.312;2022-10-31T13:27:03;2.72;;;1.90;;
5807;SDS011;2930;42.678;23.312;2022-10-31T13:32:35;2.05;;;1.95;;
5807;SDS011;2930;42.678;23.312;2022-10-31T13:35:11;2.47;;;2.00;;
5807;SDS011;2930;42.678;23.312;2022-10-31T13:37:48;4.90;;;2.03;;
5807;SDS011;2930;42.678;23.312;2022-10-31T13:45:27;1.42;;;1.40;;
5807;SDS011;2930;42.678;23.312;2022-10-31T13:50:23;3.88;;;1.77;;
5807;SDS011;2930;42.678;23.312;2022-10-31T13:52:51;1.40;;;1.40;;
5807;SDS011;2930;42.678;23.312;2022-10-31T13:58:27;1.85;;;1.38;;
5807;SDS011;2930;42.678;23.312;2022-10-31T14:03:39;2.05;;;1.65;;
5807;SDS011;2930;42.678;23.312;2022-10-31T14:06:07;1.88;;;1.80;;
5807;SDS011;2930;42.678;23.312;2022-10-31T14:08:37;5.97;;;1.83;;
5807;SDS011;2930;42.678;23.312;2022-10-31T14:11:07;2.63;;;2.42;;
5807;SDS011;2930;42.678;23.312;2022-10-31T14:13:35;3.88;;;2.15;;
5807;SDS011;2930;42.678;23.312;2022-10-31T14:16:26;2.45;;;1.85;;
5807;SDS011;2930;42.678;23.312;2022-10-31T14:21:27;2.17;;;1.73;;
5807;SDS011;2930;42.678;23.312;2022-10-31T14:23:55;3.05;;;1.70;;
5807;SDS011;2930;42.678;23.312;2022-10-31T14:28:51;3.42;;;1.40;;
5807;SDS011;2930;42.678;23.312;2022-10-31T14:31:37;1.75;;;1.38;;
5807;SDS011;2930;42.678;23.312;2022-10-31T14:45:39;2.08;;;1.40;;
5807;SDS011;2930;42.678;23.312;2022-10-31T14:50:58;2.80;;;1.88;;
5807;SDS011;2930;42.678;23.312;2022-10-31T14:53:27;4.65;;;1.85;;
5807;SDS011;2930;42.678;23.312;2022-10-31T14:56:20;1.80;;;1.70;;
5807;SDS011;2930;42.678;23.312;2022-10-31T14:58:55;6.68;;;1.67;;
5807;SDS011;2930;42.678;23.312;2022-10-31T15:01:24;2.70;;;1.70;;
5807;SDS011;2930;42.678;23.312;2022-10-31T15:03:53;1.73;;;1.70;;
5807;SDS011;2930;42.678;23.312;2022-10-31T15:06:43;5.28;;;2.03;;
5807;SDS011;2930;42.678;23.312;2022-10-31T15:09:22;2.75;;;1.98;;
5807;SDS011;2930;42.678;23.312;2022-10-31T15:11:48;9.80;;;2.20;;
5807;SDS011;2930;42.678;23.312;2022-10-31T15:14:32;2.53;;;2.20;;
5807;SDS011;2930;42.678;23.312;2022-10-31T15:16:58;6.63;;;1.60;;
5807;SDS011;2930;42.678;23.312;2022-10-31T15:19:28;5.20;;;2.45;;
5807;SDS011;2930;42.678;23.312;2022-10-31T15:21:56;9.98;;;3.45;;
5807;SDS011;2930;42.678;23.312;2022-10-31T15:24:23;5.95;;;3.47;;
5807;SDS011;2930;42.678;23.312;2022-10-31T15:26:55;4.18;;;3.00;;
5807;SDS011;2930;42.678;23.312;2022-10-31T15:29:22;11.65;;;3.13;;
5807;SDS011;2930;42.678;23.312;2022-10-31T15:31:53;4.70;;;2.70;;
5807;SDS011;2930;42.678;23.312;2022-10-31T15:34:20;9.57;;;3.03;;
5807;SDS011;2930;42.678;23.312;2022-10-31T15:36:52;3.90;;;3.08;;
5807;SDS011;2930;42.678;23.312;2022-10-31T15:39:18;12.90;;;2.75;;
5807;SDS011;2930;42.678;23.312;2022-10-31T15:44:21;4.95;;;3.72;;
5807;SDS011;2930;42.678;23.312;2022-10-31T15:47:02;5.55;;;3.78;;
5807;SDS011;2930;42.678;23.312;2022-10-31T15:49:52;10.60;;;3.88;;
5807;SDS011;2930;42.678;23.312;2022-10-31T15:55:02;5.57;;;3.45;;
5807;SDS011;2930;42.678;23.312;2022-10-31T15:57:30;6.15;;;3.30;;
5807;SDS011;2930;42.678;23.312;2022-10-31T15:59:57;11.75;;;3.70;;
5807;SDS011;2930;42.678;23.312;2022-10-31T16:02:24;6.40;;;4.20;;
5807;SDS011;2930;42.678;23.312;2022-10-31T16:04:53;18.83;;;4.45;;
5807;SDS011;2930;42.678;23.312;2022-10-31T16:07:26;8.73;;;3.92;;
5807;SDS011;2930;42.678;23.312;2022-10-31T16:12:33;8.38;;;4.13;;
5807;SDS011;2930;42.678;23.312;2022-10-31T16:15:01;17.38;;;4.53;;
5807;SDS011;2930;42.678;23.312;2022-10-31T16:17:28;6.15;;;4.28;;
5807;SDS011;2930;42.678;23.312;2022-10-31T16:20:02;7.57;;;4.47;;
5807;SDS011;2930;42.678;23.312;2022-10-31T16:22:31;12.60;;;4.47;;
5807;SDS011;2930;42.678;23.312;2022-10-31T16:27:31;14.80;;;4.70;;
5807;SDS011;2930;42.678;23.312;2022-10-31T16:29:59;9.63;;;4.30;;
5807;SDS011;2930;42.678;23.312;2022-10-31T16:32:33;6.63;;;4.85;;
5807;SDS011;2930;42.678;23.312;2022-10-31T16:37:39;9.35;;;4.80;;
5807;SDS011;2930;42.678;23.312;2022-10-31T16:40:05;7.65;;;4.95;;
5807;SDS011;2930;42.678;23.312;2022-10-31T16:42:31;7.95;;;4.72;;
5807;SDS011;2930;42.678;23.312;2022-10-31T16:44:58;12.25;;;3.90;;
5807;SDS011;2930;42.678;23.312;2022-10-31T16:47:24;5.30;;;4.00;;
5807;SDS011;2930;42.678;23.312;2022-10-31T16:49:50;6.00;;;3.85;;
5807;SDS011;2930;42.678;23.312;2022-10-31T16:52:16;9.18;;;3.95;;
5807;SDS011;2930;42.678;23.312;2022-10-31T16:54:42;5.47;;;3.55;;
5807;SDS011;2930;42.678;23.312;2022-10-31T16:57:11;5.95;;;4.05;;
5807;SDS011;2930;42.678;23.312;2022-10-31T16:59:40;7.55;;;4.72;;
5807;SDS011;2930;42.678;23.312;2022-10-31T17:02:08;8.85;;;4.25;;
5807;SDS011;2930;42.678;23.312;2022-10-31T17:04:39;9.70;;;3.22;;
5807;SDS011;2930;42.678;23.312;2022-10-31T17:07:05;4.05;;;2.88;;
5807;SDS011;2930;42.678;23.312;2022-10-31T17:09:30;2.63;;;2.40;;
5807;SDS011;2930;42.678;23.312;2022-10-31T17:11:56;3.92;;;2.00;;
5807;SDS011;2930;42.678;23.312;2022-10-31T17:14:22;6.07;;;2.92;;
5807;SDS011;2930;42.678;23.312;2022-10-31T17:16:48;4.38;;;2.38;;
5807;SDS011;2930;42.678;23.312;2022-10-31T17:19:14;3.78;;;2.72;;
5807;SDS011;2930;42.678;23.312;2022-10-31T17:21:40;4.57;;;2.55;;
5807;SDS011;2930;42.678;23.312;2022-10-31T17:24:06;5.68;;;3.05;;
5807;SDS011;2930;42.678;23.312;2022-10-31T17:26:36;2.33;;;2.22;;
5807;SDS011;2930;42.678;23.312;2022-10-31T17:29:02;6.10;;;3.47;;
5807;SDS011;2930;42.678;23.312;2022-10-31T17:31:28;7.32;;;3.20;;
5807;SDS011;2930;42.678;23.312;2022-10-31T17:33:57;9.00;;;4.32;;
5807;SDS011;2930;42.678;23.312;2022-10-31T17:36:24;9.73;;;4.55;;
5807;SDS011;2930;42.678;23.312;2022-10-31T17:38:50;26.90;;;8.77;;
5807;SDS011;2930;42.678;23.312;2022-10-31T17:41:16;14.95;;;7.95;;
5807;SDS011;2930;42.678;23.312;2022-10-31T17:43:42;18.45;;;6.63;;
5807;SDS011;2930;42.678;23.312;2022-10-31T17:46:07;13.23;;;5.05;;
5807;SDS011;2930;42.678;23.312;2022-10-31T17:48:34;7.75;;;5.68;;
5807;SDS011;2930;42.678;23.312;2022-10-31T17:51:00;8.95;;;5.35;;
5807;SDS011;2930;42.678;23.312;2022-10-31T17:53:28;10.20;;;5.35;;
5807;SDS011;2930;42.678;23.312;2022-10-31T17:55:58;10.80;;;5.63;;
5807;SDS011;2930;42.678;23.312;2022-10-31T17:58:29;14.00;;;6.10;;